Disclaimer

Please do not use the information listed here in-flight or in-navigation, as they are not provided to us by the airports but are provided by volunteers, so they might be outdated.

Search


Regions


Airport information page

Radio informations:
Tower (TWR) - 118.25 MHz
Ground (GND) - 121.9 MHz
GCA - 119.4 MHz
Approach (APP) - 136.45 MHz

Airport informations:
Latitude: 43° 49' 28.50" N
Longitude: 018° 19' 53.28" E
Elevation: 1708 feet - 521 meters
Operating hours: Remarks
Operating agency: Civil government, landing fees and diplomatic clearance may be required
Timezone: UTC+1(+2DT) - Last Sunday in March to last Sunday in October
Fuel: Jet A1+, Jet A1 with icing inhibitor.

Runway information:
12/30 - 8666 x 150 feet< - >2641 x 46 meters

Recent METARs:
LQSA 201400Z VRB01KT 3000 -RA BR FEW008 SCT025 BKN060 05/05 Q1008 NOSIG
LQSA 201430Z 15003KT 070V200 3000 TSRA BR FEW005 FEW025CB BKN050 05/05 Q1008 NOSIG
LQSA 201500Z VRB02KT 2500 TSRA BR FEW005 FEW025CB BKN050 05/05 Q1008 NOSIG

Airport on the map: